• Join FlightAware (Why Join?)
  • Login
  • US Flag 
05:28AM EDT


 

Airport Tracker/Info


-or-


 

Live Flight TrackerFlight Track Log ✈ EJA831 ✈ 01-May-2014 ✈ 36U - MMSD / SJD

Flight Track Log - Related Links

Times and Time Zones

All times are in EDT time to prevent confusion due to time zone crossing. See the EJA831 flight status page for this flight to view local times or setup timezone preferences in your user account.

Time Position Orientation Groundspeed Altitude Reporting Facility
EDT Latitude Longitude Course Direction KTS MPH feet Rate Location/Type
03:24PM 40.3653 -111.4242 166° South 260 299 12,600  Level Salt Lake Center
03:25PM 39.3645 -111.2958 163° South  Level Estimated
03:25PM 40.2989 -111.3692 148° Southeast 286 329 14,900  Level Salt Lake Center
03:26PM 40.3701 -111.4153 162° South  Level Estimated
03:26PM 40.1917 -111.3100 157° South 330 380 15,000  Level Salt Lake Center
03:27PM 40.2706 -111.3474 152° Southeast  Level FlightAware Approximate
03:27PM 40.0875 -111.2781 167° South 367 422 15,000  Level Salt Lake Center
03:28PM 40.1588 -111.3344 167° South  Level Estimated
03:28PM 39.9906 -111.2428 164° South 376 433 15,000  Level Salt Lake Center
03:29PM 40.0470 -111.3214 166° South  Level Estimated
03:29PM 39.8769 -111.2031 165° South 378 435 15,200  Level Salt Lake Center
03:30PM 39.7786 -111.1686 165° South 378 435 17,700 2,340 Climbing Salt Lake Center
03:31PM 39.6594 -111.1269 165° South 387 445 20,000 2,220 Climbing Salt Lake Center
03:32PM 39.5575 -111.0914 165° South 391 450 22,300 2,400 Climbing Salt Lake Center
03:33PM 39.4400 -111.0508 165° South 392 451 25,000 2,400 Climbing Salt Lake Center
03:34PM 39.3383 -111.0153 165° South 392 451 27,300 2,340 Climbing Salt Lake Center
03:35PM 39.2158 -110.9733 165° South 402 463 29,900 2,160 Climbing Salt Lake Center
03:36PM 39.1100 -110.9361 165° South 407 468 31,800 1,980 Climbing Salt Lake Center
03:37PM 38.9842 -110.8936 165° South 413 475 34,000 1,920 Climbing Salt Lake Center
03:38PM 38.8769 -110.8561 165° South 414 476 35,800 1,680 Climbing Salt Lake Center
03:39PM 38.7694 -110.8194 165° South 415 478 37,500 1,560 Climbing Salt Lake Center
03:40PM 38.6464 -110.7775 165° South 415 478 39,000 1,140 Climbing Salt Lake Center
03:41PM 38.5372 -110.7411 165° South 415 478 39,900 960 Climbing Salt Lake Center
03:42PM 38.4044 -110.7067 169° South 429 494 41,000 480 Climbing Salt Lake Center
03:43PM 38.2881 -110.7314 189° South 439 505 41,000  Level Salt Lake Center
03:44PM 38.1497 -110.7672 192° South 446 513 41,000  Level Salt Lake Center
03:45PM 38.0278 -110.7983 191° South 459 528 41,000  Level Salt Lake Center
03:46PM 37.9078 -110.8292 191° South 465 535 41,000  Level Salt Lake Center
03:48PM 37.7514 -110.8686 191° South 471 542 41,000  Level Salt Lake Center
03:49PM 37.6203 -110.9000 191° South 476 548 41,000  Level Salt Lake Center
03:50PM 37.4894 -110.9333 191° South 476 548 41,000  Level Salt Lake Center
03:51PM 37.3589 -110.9658 191° South 476 548 41,000  Level Salt Lake Center
03:52PM 37.2275 -110.9994 192° South 476 548 41,000  Level Salt Lake Center
03:53PM 37.0961 -111.0311 191° South 477 549 41,000  Level Salt Lake Center
03:54PM 36.9672 -111.0636 191° South 476 548 41,000  Level Salt Lake Center
03:55PM 36.8122 -111.1019 191° South 476 548 41,000  Level Salt Lake Center
03:56PM 36.6836 -111.1319 191° South 475 547 41,000  Level Salt Lake Center
03:57PM 36.5286 -111.1703 191° South 471 542 41,000  Level Denver Center
03:58PM 36.3983 -111.2025 191° South 471 542 41,000  Level Denver Center
03:59PM 36.2694 -111.2344 191° South 471 542 41,000  Level Denver Center
04:00PM 36.1139 -111.2672 190° South 471 542 41,000  Level Denver Center
04:01PM 35.9814 -111.2575 177° South 475 547 41,000  Level Denver Center
04:02PM 35.8500 -111.2444 175° South 476 548 41,000  Level Denver Center
04:03PM 35.7186 -111.2331 176° South 475 547 41,000  Level Denver Center
04:04PM 35.5789 -111.2203 176° South 474 545 41,000  Level Denver Center
04:05PM 35.4542 -111.2081 175° South 473 544 41,000  Level Denver Center
04:06PM 35.3078 -111.1961 176° South 472 543 41,000  Level Denver Center
04:08PM 35.1556 -111.1819 176° South 471 542 41,000  Level Albuquerque Center
04:09PM 35.0244 -111.1697 176° South 471 542 41,000  Level Albuquerque Center
04:10PM 34.8675 -111.1567 176° South 471 542 41,000  Level Albuquerque Center
04:11PM 34.7367 -111.1456 176° South 471 542 41,000  Level Albuquerque Center
04:12PM 34.6069 -111.1325 175° South 470 541 41,000  Level Albuquerque Center
04:13PM 34.4767 -111.1225 176° South 470 541 41,000  Level Albuquerque Center
04:14PM 34.3469 -111.1103 176° South 469 540 41,000  Level Albuquerque Center
04:15PM 34.2169 -111.0978 175° South 468 539 41,000  Level Albuquerque Center
04:16PM 34.0589 -111.0844 176° South 468 539 41,000  Level Albuquerque Center
04:17PM 33.9289 -111.0722 176° South 468 539 41,000  Level Albuquerque Center
04:18PM 33.7978 -111.0614 176° South 468 539 41,000  Level Albuquerque Center
04:19PM 33.6686 -111.0497 176° South 467 537 41,000  Level Albuquerque Center
04:20PM 33.5389 -111.0389 176° South 464 534 41,000  Level Albuquerque Center
04:21PM 33.4094 -111.0272 176° South 464 534 41,000  Level Albuquerque Center
04:22PM 33.2806 -111.0156 176° South 464 534 41,000  Level Albuquerque Center
04:23PM 33.1256 -111.0028 176° South 464 534 41,000  Level Albuquerque Center
04:24PM 32.9958 -110.9922 176° South 464 534 41,000  Level Albuquerque Center
04:25PM 32.8686 -110.9808 176° South 464 534 41,000  Level Albuquerque Center
04:26PM 32.7419 -110.9706 176° South 460 529 41,000  Level Albuquerque Center
04:27PM 32.6147 -110.9600 176° South 458 527 41,000  Level Albuquerque Center
04:28PM 32.4886 -110.9492 176° South 457 526 41,000  Level Albuquerque Center
04:29PM 32.3389 -110.9356 176° South 454 522 41,000  Level Albuquerque Center
04:30PM 32.2139 -110.9233 175° South 453 521 41,000  Level Albuquerque Center
04:31PM 32.0861 -110.9150 177° South 454 522 41,000  Level Albuquerque Center
04:32PM 31.9617 -110.9228 183° South 453 521 41,000  Level Albuquerque Center
04:33PM 31.8358 -110.9289 182° South 451 519 41,000  Level Albuquerque Center
04:35PM 31.7089 -110.9350 182° South 451 519 41,000  Level Albuquerque Center
04:36PM 31.5586 -110.9367 181° South 451 519 41,000  Level Albuquerque Center
04:37PM 31.4328 -110.9458 184° South 451 519 41,000  Level Albuquerque Center
04:39PM 31.2216 -110.9384 182° South  Level FlightAware Approximate
04:46PM 30.4525 -110.9730 182° South  Level FlightAware Approximate
04:47PM 30.3426 -110.9779 182° South  Level FlightAware Approximate
04:48PM 30.2328 -110.9828 182° South  Level FlightAware Approximate
04:49PM 30.1229 -110.9877 182° South  Level FlightAware Approximate
04:50PM 30.0130 -110.9926 182° South  Level FlightAware Approximate
04:51PM 29.9032 -110.9974 182° South  Level FlightAware Approximate
04:52PM 29.7933 -111.0023 182° South  Level FlightAware Approximate
04:53PM 29.6834 -111.0071 182° South  Level FlightAware Approximate
04:54PM 29.5735 -111.0119 182° South  Level FlightAware Approximate
04:55PM 29.4637 -111.0167 182° South  Level FlightAware Approximate
04:56PM 29.3538 -111.0216 182° South  Level FlightAware Approximate
04:57PM 29.2439 -111.0263 182° South  Level FlightAware Approximate
04:58PM 29.1341 -111.0311 182° South  Level FlightAware Approximate
04:59PM 29.0244 -111.0272 175° South  Level FlightAware Approximate
05:00PM 28.9149 -111.0158 175° South  Level FlightAware Approximate
05:01PM 28.8054 -111.0045 175° South  Level FlightAware Approximate
05:02PM 28.6959 -110.9932 175° South  Level FlightAware Approximate
05:03PM 28.5864 -110.9819 175° South  Level FlightAware Approximate
05:04PM 28.4769 -110.9706 175° South  Level FlightAware Approximate
05:05PM 28.3674 -110.9593 175° South  Level FlightAware Approximate
05:06PM 28.2579 -110.9481 175° South  Level FlightAware Approximate
05:07PM 28.1484 -110.9369 175° South  Level FlightAware Approximate
05:08PM 28.0389 -110.9257 175° South  Level FlightAware Approximate
05:09PM 27.9294 -110.9138 173° South  Level FlightAware Approximate
05:10PM 27.8203 -110.8987 173° South  Level FlightAware Approximate
05:11PM 27.7111 -110.8837 173° South  Level FlightAware Approximate
05:12PM 27.6020 -110.8686 173° South  Level FlightAware Approximate
05:13PM 27.4929 -110.8536 173° South  Level FlightAware Approximate
05:14PM 27.3839 -110.8366 172° South  Level FlightAware Approximate
05:15PM 27.2751 -110.8190 172° South  Level FlightAware Approximate
05:16PM 27.1663 -110.8015 172° South  Level FlightAware Approximate
05:17PM 27.0574 -110.7839 172° South  Level FlightAware Approximate
05:18PM 26.9486 -110.7664 172° South  Level FlightAware Approximate
05:19PM 26.8398 -110.7490 172° South  Level FlightAware Approximate
05:20PM 26.7309 -110.7316 172° South  Level FlightAware Approximate
05:21PM 26.6221 -110.7141 172° South  Level FlightAware Approximate
05:22PM 26.5132 -110.6972 173° South  Level FlightAware Approximate
05:23PM 26.4040 -110.6823 173° South  Level FlightAware Approximate
05:24PM 26.2949 -110.6675 173° South  Level FlightAware Approximate
05:25PM 26.1857 -110.6526 173° South  Level FlightAware Approximate
05:26PM 26.0766 -110.6378 173° South  Level FlightAware Approximate
05:27PM 25.9675 -110.6230 173° South  Level FlightAware Approximate
05:28PM 25.8583 -110.6082 173° South  Level FlightAware Approximate
05:29PM 25.7492 -110.5935 173° South  Level FlightAware Approximate
05:30PM 25.6400 -110.5788 173° South  Level FlightAware Approximate
05:31PM 25.5312 -110.5620 167° South  Level FlightAware Approximate
05:32PM 25.4230 -110.5414 173° South  Level FlightAware Approximate
05:33PM 25.3141 -110.5240 171° South  Level FlightAware Approximate
05:34PM 25.2056 -110.5049 171° South  Level FlightAware Approximate
05:35PM 25.0970 -110.4857 171° South  Level FlightAware Approximate
05:36PM 24.9882 -110.4683 172° South  Level FlightAware Approximate
05:37PM 24.8793 -110.4511 172° South  Level FlightAware Approximate
05:38PM 24.7705 -110.4339 172° South  Level FlightAware Approximate
05:39PM 24.6615 -110.4223 170° South  Level FlightAware Approximate
05:40PM 24.5533 -110.4006 170° South  Level FlightAware Approximate
05:41PM 24.4449 -110.3804 173° South  Level FlightAware Approximate
05:42PM 24.3358 -110.3659 173° South  Level FlightAware Approximate
05:43PM 24.2266 -110.3513 173° South  Level FlightAware Approximate
05:44PM 24.1187 -110.3282 169° South  Level FlightAware Approximate
05:45PM 24.0169 -110.2867 151° Southeast  Level FlightAware Approximate
05:46PM 23.9205 -110.2289 151° Southeast  Level FlightAware Approximate
05:47PM 23.8241 -110.1711 151° Southeast  Level FlightAware Approximate
05:48PM 23.7285 -110.1116 150° Southeast  Level FlightAware Approximate
05:49PM 23.6326 -110.0529 151° Southeast  Level FlightAware Approximate
05:50PM 23.5392 -109.9899 147° Southeast  Level FlightAware Approximate
05:51PM 23.4477 -109.9233 145° Southeast  Level FlightAware Approximate
05:52PM 23.3571 -109.8554 145° Southeast  Level FlightAware Approximate
05:53PM 23.2603 -109.7994 145° Southeast  Level FlightAware Approximate
05:54PM 23.1668 -109.7368 151° Southeast  Level FlightAware Approximate
05:55PM 23.1518 -109.7210 151° Southeast  Level Estimated
05:56PM 23.1518 -109.7210 151° Southeast  Level Estimated
05:57PM 23.1518 -109.7210 151° Southeast  Level Estimated
05:58PM 23.1518 -109.7210 151° Southeast  Level Estimated
05:59PM 23.1518 -109.7210 151° Southeast  Level Estimated
06:00PM 23.1518 -109.7210 151° Southeast  Level Estimated
06:01PM 23.1518 -109.7210 151° Southeast  Level Estimated
06:02PM 23.1518 -109.7210 151° Southeast  Level Estimated
06:03PM 23.1518 -109.7210 151° Southeast  Level Estimated
06:04PM 23.1518 -109.7210 151° Southeast  Level Estimated
06:05PM 23.1518 -109.7210 151° Southeast  Level Estimated
06:06PM 23.1518 -109.7210 151° Southeast  Level Estimated
06:07PM 23.1518 -109.7210 151° Southeast  Level Estimated
06:08PM 23.1518 -109.7210 151° Southeast  Level Estimated
06:09PM 23.1518 -109.7210 151° Southeast  Level Estimated
06:10PM 23.1518 -109.7210 151° Southeast  Level Estimated
06:11PM 23.1518 -109.7210 151° Southeast  Level Estimated